Buntingford, United Kingdom
Current Conditions -  °F | °C
As of 4:50 AM on Saturday 29 Nov 2014 (Local Time) from EGSS Reporting Station
Clear Clear  
Wind Chill: 50°   Ceiling: Unl
Heat Index: 50°   Visibility: 4mi
Dew Point: 48°   Wind: 10mph
Humidity: 94%   Direction: 100°E
Pressure: 29.8"   Gusts: NA
Location:  51.95°N, 0.02°W
Report Text: EGSS 290450Z AUTO 10009KT 6000 NCD 10/09 Q1009
Loading
Personal Weather Stations






























Interactive Weather Map New forecast layout! Learn more

10-Day Weather Forecast

Advertisements
Track Severe Weather on mobile